Time;durP1;ratioP1;P1;durP2;ratioP2;P2;SDS_P1;SDS_P2;PMS_P1;PMS_P2;Temp;Humidity;BMP_temperature;BMP_pressure;BME280_temperature;BME280_humidity;BME280_pressure;Samples;Min_cycle;Max_cycle;Signal;HPM_P1;HPM_P2
2021/03/01 00:00:38;;;;;;;15.37;10.43;;;0.20;67.80;;;;;;4997025;28;20448;-77
2021/03/01 00:03:05;;;;;;;17.37;10.97;;;0.20;67.90;;;;;;5006273;28;20443;-76
2021/03/01 00:05:32;;;;;;;13.33;9.73;;;0.20;68.30;;;;;;5008998;28;20509;-76
2021/03/01 00:07:58;;;;;;;16.43;10.83;;;0.30;68.40;;;;;;4994769;28;20534;-78
2021/03/01 00:10:25;;;;;;;14.60;11.50;;;0.40;68.60;;;;;;4997661;28;20526;-78
2021/03/01 00:12:51;;;;;;;15.40;10.40;;;0.40;68.20;;;;;;4986268;28;20502;-77
2021/03/01 00:15:24;;;;;;;16.20;10.50;;;0.40;67.80;;;;;;4995289;28;20533;-77
2021/03/01 00:17:51;;;;;;;17.00;10.97;;;0.50;68.00;;;;;;4995082;28;20566;-80
2021/03/01 00:20:17;;;;;;;15.50;9.83;;;0.40;68.20;;;;;;4998874;28;20491;-77
2021/03/01 00:22:45;;;;;;;13.70;9.33;;;0.40;68.30;;;;;;4995778;28;20448;-77
2021/03/01 00:25:13;;;;;;;13.83;10.70;;;0.40;68.60;;;;;;4996338;28;20475;-77
2021/03/01 00:27:39;;;;;;;13.70;9.67;;;0.30;68.40;;;;;;4996203;28;20464;-78
2021/03/01 00:30:07;;;;;;;13.97;10.17;;;0.70;70.10;;;;;;4998750;28;20464;-77
2021/03/01 00:32:34;;;;;;;13.90;9.73;;;0.50;68.80;;;;;;4995935;28;20448;-79
2021/03/01 00:35:02;;;;;;;12.83;9.57;;;0.40;69.20;;;;;;4997820;28;20509;-79
2021/03/01 00:37:29;;;;;;;13.10;9.50;;;0.40;68.90;;;;;;5002285;28;20802;-79
2021/03/01 00:39:58;;;;;;;13.97;10.20;;;0.20;69.40;;;;;;5005491;28;20458;-80
2021/03/01 00:42:25;;;;;;;15.70;10.53;;;0.20;69.70;;;;;;5005281;28;20974;-80
2021/03/01 00:44:51;;;;;;;13.03;9.73;;;0.20;69.50;;;;;;4991902;28;20989;-80
2021/03/01 00:47:18;;;;;;;12.80;8.80;;;0.20;69.80;;;;;;5007367;28;20499;-78
2021/03/01 00:49:44;;;;;;;16.17;10.30;;;0.10;70.20;;;;;;5004074;28;20451;-80
2021/03/01 00:52:12;;;;;;;15.90;10.33;;;0.10;70.10;;;;;;4999986;28;20461;-80
2021/03/01 00:54:38;;;;;;;15.13;9.90;;;0.00;70.70;;;;;;5006955;28;20627;-85
2021/03/01 00:57:05;;;;;;;14.80;9.60;;;0.00;70.80;;;;;;5016872;28;20467;-81
2021/03/01 00:59:31;;;;;;;12.70;9.87;;;0.00;71.00;;;;;;5017626;28;20420;-79
2021/03/01 01:01:58;;;;;;;14.07;9.47;;;-0.10;71.30;;;;;;5037114;28;20490;-80
2021/03/01 01:04:24;;;;;;;19.53;10.13;;;-0.10;71.30;;;;;;5039070;28;20454;-80
2021/03/01 01:06:51;;;;;;;17.43;10.27;;;-0.10;71.70;;;;;;5026405;28;20622;-79
2021/03/01 01:09:18;;;;;;;16.07;10.23;;;-0.10;71.90;;;;;;5022553;28;20450;-80
2021/03/01 01:11:45;;;;;;;14.90;9.20;;;-0.20;72.10;;;;;;4998327;28;20475;-81
2021/03/01 01:14:12;;;;;;;14.40;10.20;;;-0.10;72.50;;;;;;5001131;28;20462;-80
2021/03/01 01:16:38;;;;;;;21.37;11.43;;;-0.20;72.50;;;;;;5007221;28;20470;-81
2021/03/01 01:19:07;;;;;;;18.20;10.37;;;-0.20;72.70;;;;;;5000551;28;20466;-79
2021/03/01 01:21:33;;;;;;;13.50;9.97;;;-0.10;73.20;;;;;;5001870;28;20577;-80
2021/03/01 01:24:00;;;;;;;13.30;10.33;;;-0.10;73.70;;;;;;5007117;28;20578;-80
2021/03/01 01:26:27;;;;;;;17.43;11.37;;;-0.10;73.50;;;;;;5003257;28;20478;-80
2021/03/01 01:28:53;;;;;;;18.57;10.60;;;-0.10;73.20;;;;;;5006134;28;20448;-79
2021/03/01 01:31:20;;;;;;;13.73;9.30;;;-0.10;73.30;;;;;;5006963;28;20470;-80
2021/03/01 01:33:46;;;;;;;15.80;10.17;;;-0.20;73.30;;;;;;5004106;28;20478;-84
2021/03/01 01:36:13;;;;;;;15.50;10.40;;;-0.20;73.80;;;;;;4999812;28;20454;-82
2021/03/01 01:38:39;;;;;;;15.87;9.97;;;-0.30;73.80;;;;;;5006286;28;20458;-81
2021/03/01 01:41:05;;;;;;;14.60;9.57;;;-0.40;74.70;;;;;;5006285;28;20451;-81
2021/03/01 01:43:33;;;;;;;15.60;9.80;;;-0.40;73.90;;;;;;5007171;28;20474;-80
2021/03/01 01:45:59;;;;;;;17.07;9.97;;;-0.40;74.40;;;;;;5004615;28;20466;-80
2021/03/01 01:48:26;;;;;;;16.03;10.13;;;-0.50;74.80;;;;;;5006930;28;20485;-86
2021/03/01 01:50:52;;;;;;;15.00;10.30;;;-0.50;74.70;;;;;;4999008;28;20473;-79
2021/03/01 01:53:18;;;;;;;12.43;9.90;;;-0.60;75.10;;;;;;5002231;28;20862;-80
2021/03/01 01:55:45;;;;;;;14.97;10.53;;;-0.50;75.70;;;;;;4999437;28;20965;-80
2021/03/01 01:58:12;;;;;;;18.70;10.47;;;-0.50;75.30;;;;;;5005049;28;20452;-81
2021/03/01 02:00:45;;;;;;;15.77;10.63;;;-0.60;75.40;;;;;;4995956;28;21036;-82
2021/03/01 02:03:39;;;;;;;17.40;10.10;;;-0.70;75.40;;;;;;5001006;28;20458;-85
2021/03/01 02:06:11;;;;;;;16.63;10.40;;;-0.90;76.80;;;;;;5010306;28;20656;-80
2021/03/01 02:08:53;;;;;;;16.53;10.60;;;-0.90;77.30;;;;;;5001242;28;20519;-79
2021/03/01 02:11:26;;;;;;;18.43;10.87;;;-1.00;77.30;;;;;;5001171;28;20510;-81
2021/03/01 02:14:05;;;;;;;14.40;9.87;;;-1.00;78.30;;;;;;5006719;28;20501;-85
2021/03/01 02:16:35;;;;;;;14.80;9.73;;;-1.00;77.50;;;;;;5014037;28;20515;-81
2021/03/01 02:19:02;;;;;;;15.97;10.63;;;-1.00;77.80;;;;;;5008620;28;20455;-81
2021/03/01 02:21:31;;;;;;;15.90;9.97;;;-1.00;77.30;;;;;;5010203;28;20450;-79
2021/03/01 02:23:58;;;;;;;17.50;10.80;;;-1.00;77.60;;;;;;5000401;28;20510;-80
2021/03/01 02:26:27;;;;;;;14.70;10.00;;;-1.10;77.80;;;;;;5001505;28;20482;-82
2021/03/01 02:28:59;;;;;;;14.63;10.17;;;-1.00;78.30;;;;;;5011278;28;20483;-80
2021/03/01 02:31:27;;;;;;;14.40;10.70;;;-1.10;78.20;;;;;;5007236;28;20469;-82
2021/03/01 02:33:57;;;;;;;15.37;9.90;;;-1.00;79.10;;;;;;5007498;28;20499;-83
2021/03/01 02:36:28;;;;;;;16.90;10.70;;;-1.10;79.30;;;;;;5007123;28;20525;-80
2021/03/01 02:38:58;;;;;;;17.03;10.50;;;-1.00;79.50;;;;;;4999022;28;20463;-79
2021/03/01 02:41:27;;;;;;;18.37;11.60;;;-1.00;79.50;;;;;;5009543;28;20780;-81
2021/03/01 02:43:54;;;;;;;21.33;12.80;;;-1.00;79.70;;;;;;5011464;28;20445;-82
2021/03/01 02:46:21;;;;;;;17.43;11.80;;;-1.00;80.00;;;;;;5000869;28;20500;-81
2021/03/01 02:48:49;;;;;;;18.23;12.17;;;-1.00;80.70;;;;;;4996764;28;20497;-81
2021/03/01 02:51:16;;;;;;;18.57;12.40;;;-1.00;81.00;;;;;;4995995;28;20543;-84
2021/03/01 02:53:44;;;;;;;16.27;11.70;;;-0.90;82.20;;;;;;4998016;28;20456;-80
2021/03/01 02:56:15;;;;;;;17.50;12.77;;;-0.80;82.20;;;;;;5001081;28;20501;-81
2021/03/01 02:58:42;;;;;;;15.17;11.40;;;-0.80;82.00;;;;;;5003239;28;20504;-81
2021/03/01 03:01:10;;;;;;;18.77;12.10;;;-0.80;82.40;;;;;;5010812;28;20506;-80
2021/03/01 03:03:38;;;;;;;19.40;13.00;;;-0.90;82.00;;;;;;5008570;28;20566;-82
2021/03/01 03:06:05;;;;;;;19.47;12.03;;;-0.90;82.80;;;;;;5007571;28;20503;-80
2021/03/01 03:08:32;;;;;;;19.93;11.83;;;-0.90;82.80;;;;;;5004109;28;20548;-82
2021/03/01 03:11:00;;;;;;;18.50;11.60;;;-0.90;82.60;;;;;;5005185;28;20472;-80
2021/03/01 03:13:28;;;;;;;18.40;12.37;;;-0.90;83.00;;;;;;5001841;28;20483;-82
2021/03/01 03:15:57;;;;;;;17.83;11.03;;;-0.80;83.40;;;;;;4996100;28;20478;-82
2021/03/01 03:18:25;;;;;;;14.33;10.90;;;-1.00;82.90;;;;;;5013667;28;20471;-80
2021/03/01 03:20:52;;;;;;;18.57;12.10;;;-1.00;83.00;;;;;;4996363;28;20888;-83
2021/03/01 03:23:19;;;;;;;17.07;11.87;;;-1.10;84.60;;;;;;4996780;28;20497;-86
2021/03/01 03:25:45;;;;;;;17.43;12.10;;;-1.00;85.10;;;;;;4996530;28;20477;-80
2021/03/01 03:28:11;;;;;;;17.80;11.30;;;-1.00;84.70;;;;;;4999308;28;20880;-81
2021/03/01 03:30:39;;;;;;;22.63;12.00;;;-1.00;83.70;;;;;;4995900;28;20447;-80
2021/03/01 03:33:08;;;;;;;16.23;11.47;;;-1.00;83.80;;;;;;4995293;28;21037;-80
2021/03/01 03:35:35;;;;;;;19.53;11.50;;;-1.10;83.50;;;;;;4998502;28;20805;-79
2021/03/01 03:38:06;;;;;;;19.40;11.80;;;-1.20;84.20;;;;;;4997263;28;20811;-79
2021/03/01 03:40:33;;;;;;;16.00;12.57;;;-1.20;84.30;;;;;;4997862;28;20494;-80
2021/03/01 03:43:01;;;;;;;20.77;12.67;;;-1.10;85.00;;;;;;4992741;28;20455;-80
2021/03/01 03:45:27;;;;;;;18.40;11.80;;;-1.10;84.60;;;;;;4997922;28;20486;-80
2021/03/01 03:47:59;;;;;;;20.90;12.00;;;-1.10;84.70;;;;;;4998807;28;20485;-85
2021/03/01 03:50:27;;;;;;;18.97;11.30;;;-1.10;84.60;;;;;;5000134;28;20451;-80
2021/03/01 03:52:57;;;;;;;15.93;9.67;;;-1.20;84.30;;;;;;5003282;28;20453;-80
2021/03/01 03:55:25;;;;;;;14.90;10.40;;;-1.20;84.30;;;;;;5004645;28;20539;-82
2021/03/01 03:57:57;;;;;;;21.63;11.90;;;-1.20;84.70;;;;;;5003092;28;20478;-81
2021/03/01 04:00:25;;;;;;;18.73;10.67;;;-1.10;84.10;;;;;;5004551;28;21034;-80
2021/03/01 04:02:54;;;;;;;15.87;10.70;;;-1.10;83.80;;;;;;5004935;28;20520;-80
2021/03/01 04:05:23;;;;;;;19.87;12.27;;;-1.00;83.90;;;;;;5010743;28;20465;-80
2021/03/01 04:07:52;;;;;;;14.80;10.13;;;-1.00;83.70;;;;;;4988378;28;20570;-82
2021/03/01 04:10:19;;;;;;;18.70;12.20;;;-1.00;82.90;;;;;;5000991;28;20462;-82
2021/03/01 04:12:49;;;;;;;19.00;11.00;;;-1.00;82.60;;;;;;4996428;28;20534;-80
2021/03/01 04:15:17;;;;;;;19.00;10.83;;;-0.90;82.50;;;;;;5016456;28;21011;-81
2021/03/01 04:17:45;;;;;;;19.00;11.80;;;-0.80;82.90;;;;;;5003292;28;20495;-80
2021/03/01 04:20:19;;;;;;;16.10;11.13;;;-0.80;82.30;;;;;;4999230;28;20447;-80
2021/03/01 04:22:47;;;;;;;17.67;10.90;;;-0.80;81.90;;;;;;4998375;28;20856;-80
2021/03/01 04:25:14;;;;;;;20.50;10.93;;;-0.90;81.20;;;;;;4998498;28;20843;-80
2021/03/01 04:27:42;;;;;;;16.87;10.87;;;-1.00;81.80;;;;;;5001303;28;20478;-81
2021/03/01 04:30:11;;;;;;;17.90;11.53;;;-1.00;83.20;;;;;;4998120;28;20470;-86
2021/03/01 04:32:41;;;;;;;18.27;11.47;;;-1.00;84.10;;;;;;4992327;28;20486;-80
2021/03/01 04:35:10;;;;;;;17.27;10.80;;;-0.90;84.20;;;;;;4992646;28;20484;-79
2021/03/01 04:37:39;;;;;;;19.70;10.57;;;-1.00;84.20;;;;;;4998666;28;20576;-80
2021/03/01 04:40:08;;;;;;;17.50;11.00;;;-1.10;84.70;;;;;;5000024;28;21101;-82
2021/03/01 04:42:36;;;;;;;18.30;10.93;;;-1.10;85.40;;;;;;5002760;28;21218;-79
2021/03/01 04:45:04;;;;;;;17.63;11.53;;;-1.00;86.40;;;;;;4998316;28;20957;-81
2021/03/01 04:47:33;;;;;;;18.77;11.13;;;-1.00;86.30;;;;;;4996827;28;20471;-80
2021/03/01 04:50:00;;;;;;;17.47;11.13;;;-1.10;85.40;;;;;;4999964;28;20526;-81
2021/03/01 04:52:28;;;;;;;17.10;10.93;;;-1.20;85.30;;;;;;5001499;28;20456;-79
2021/03/01 04:54:55;;;;;;;15.47;10.07;;;-1.20;85.30;;;;;;4996031;28;20539;-80
2021/03/01 04:57:22;;;;;;;16.30;10.23;;;-1.10;85.40;;;;;;4999108;28;20543;-80
2021/03/01 04:59:49;;;;;;;15.67;9.90;;;-1.10;85.60;;;;;;4992770;28;20450;-80
2021/03/01 05:02:16;;;;;;;14.27;9.77;;;-1.10;85.80;;;;;;4997742;28;20519;-80
2021/03/01 05:04:43;;;;;;;22.73;11.07;;;-1.10;85.40;;;;;;4999121;28;20510;-81
2021/03/01 05:07:09;;;;;;;19.63;11.47;;;-1.10;85.30;;;;;;4993529;28;20470;-81
2021/03/01 05:09:40;;;;;;;17.67;10.13;;;-1.10;85.30;;;;;;4996246;28;20520;-80
2021/03/01 05:12:07;;;;;;;16.43;10.90;;;-1.10;85.30;;;;;;4997103;28;20550;-81
2021/03/01 05:14:34;;;;;;;16.33;11.00;;;-1.10;85.60;;;;;;4997268;28;20550;-81
2021/03/01 05:17:02;;;;;;;18.10;10.70;;;-1.10;85.90;;;;;;5002403;28;20549;-83
2021/03/01 05:19:30;;;;;;;22.50;10.80;;;-1.10;85.70;;;;;;5006863;28;20456;-82
2021/03/01 05:21:57;;;;;;;19.63;10.80;;;-1.10;85.30;;;;;;5011378;28;20531;-80
2021/03/01 05:24:23;;;;;;;20.77;11.60;;;-1.10;84.90;;;;;;5012067;28;20526;-80
2021/03/01 05:26:50;;;;;;;16.77;10.33;;;-1.10;85.20;;;;;;5009192;28;20469;-79
2021/03/01 05:29:17;;;;;;;16.50;11.00;;;-1.10;85.10;;;;;;5001910;28;20454;-81
2021/03/01 05:31:45;;;;;;;20.10;11.80;;;-1.20;85.50;;;;;;5000065;28;20490;-80
2021/03/01 05:34:11;;;;;;;19.33;12.13;;;-1.30;86.40;;;;;;5001101;28;20505;-80
2021/03/01 05:36:37;;;;;;;19.77;12.00;;;-1.20;87.60;;;;;;5001776;28;20447;-81
2021/03/01 05:39:05;;;;;;;17.70;11.20;;;-1.10;87.40;;;;;;5000613;28;20504;-80
2021/03/01 05:41:32;;;;;;;20.00;12.73;;;-1.10;86.60;;;;;;5005364;28;20447;-82
2021/03/01 05:43:59;;;;;;;23.50;12.80;;;-1.20;86.20;;;;;;5008167;28;20494;-84
2021/03/01 05:46:27;;;;;;;23.70;12.70;;;-1.20;86.70;;;;;;5006297;28;20546;-87
2021/03/01 05:48:55;;;;;;;28.77;16.80;;;-1.30;86.80;;;;;;5006824;28;20502;-81
2021/03/01 05:51:24;;;;;;;24.00;13.80;;;-1.40;87.40;;;;;;5009879;28;20547;-80
2021/03/01 05:53:54;;;;;;;17.73;12.20;;;-1.30;87.70;;;;;;5012566;28;20465;-80
2021/03/01 05:56:21;;;;;;;23.40;13.47;;;-1.40;86.50;;;;;;5001920;28;20450;-79
2021/03/01 05:58:49;;;;;;;19.63;14.00;;;-1.50;87.60;;;;;;4997787;28;20489;-80
2021/03/01 06:01:24;;;;;;;23.57;15.00;;;-1.40;86.60;;;;;;5002745;28;20447;-88
2021/03/01 06:03:50;;;;;;;20.30;14.67;;;-1.40;87.10;;;;;;5015737;28;20453;-81
2021/03/01 06:06:17;;;;;;;20.77;13.43;;;-1.30;86.30;;;;;;5014903;28;20538;-82
2021/03/01 06:08:44;;;;;;;21.50;13.83;;;-1.40;86.20;;;;;;5005849;28;20478;-80
2021/03/01 06:11:10;;;;;;;21.40;13.00;;;-1.40;86.30;;;;;;4999129;28;20435;-80
2021/03/01 06:13:37;;;;;;;23.93;13.40;;;-1.30;86.80;;;;;;5001118;28;20857;-83
2021/03/01 06:16:09;;;;;;;19.87;12.83;;;-1.40;85.80;;;;;;4997649;28;20556;-82
2021/03/01 06:18:45;;;;;;;25.13;12.80;;;-1.40;86.40;;;;;;4998105;28;20471;-80
2021/03/01 06:21:13;;;;;;;19.23;12.90;;;-1.20;86.40;;;;;;4994295;28;20537;-80
2021/03/01 06:23:42;;;;;;;23.80;15.20;;;-1.10;86.50;;;;;;4998087;28;20453;-80
2021/03/01 06:26:25;;;;;;;27.40;13.50;;;-1.00;86.00;;;;;;4998842;28;20468;-81
2021/03/01 06:28:54;;;;;;;17.90;12.47;;;-1.00;85.60;;;;;;4995549;28;20497;-81
2021/03/01 06:31:38;;;;;;;27.37;14.40;;;-1.00;84.70;;;;;;5002467;28;20513;-82
2021/03/01 06:34:19;;;;;;;20.77;12.47;;;-0.90;84.50;;;;;;5001221;28;20479;-84
2021/03/01 06:36:56;;;;;;;18.30;12.43;;;-0.90;83.90;;;;;;5001316;28;20516;-83
2021/03/01 06:39:29;;;;;;;25.87;16.03;;;-0.90;83.60;;;;;;5002963;28;20484;-84
2021/03/01 06:41:56;;;;;;;27.83;14.43;;;-0.80;83.70;;;;;;5000662;28;20555;-82
2021/03/01 06:44:23;;;;;;;22.67;14.50;;;-0.70;83.30;;;;;;5010070;28;20475;-81
2021/03/01 06:46:51;;;;;;;20.90;13.87;;;-0.60;82.50;;;;;;5018036;28;20505;-80
2021/03/01 06:49:18;;;;;;;21.97;12.93;;;-0.50;81.90;;;;;;5000067;28;20471;-87
2021/03/01 06:51:45;;;;;;;21.77;13.83;;;-0.40;80.50;;;;;;4991171;28;20453;-81
2021/03/01 06:54:11;;;;;;;21.67;13.20;;;-0.20;79.90;;;;;;4999263;28;20451;-82
2021/03/01 06:56:40;;;;;;;20.07;12.90;;;-0.20;79.30;;;;;;5003581;28;20459;-85
2021/03/01 06:59:11;;;;;;;20.80;13.63;;;-0.10;78.60;;;;;;4996859;28;20544;-82
2021/03/01 07:01:44;;;;;;;20.23;11.50;;;-0.10;78.10;;;;;;4996699;28;20618;-84
2021/03/01 07:04:19;;;;;;;20.60;12.03;;;0.00;77.60;;;;;;4999002;28;20448;-81
2021/03/01 07:06:45;;;;;;;21.13;12.77;;;0.00;77.40;;;;;;4997524;28;20522;-83
2021/03/01 07:09:14;;;;;;;25.37;12.63;;;0.20;77.00;;;;;;4996208;28;20573;-79
2021/03/01 07:11:43;;;;;;;23.73;12.73;;;0.40;76.50;;;;;;5006017;28;20443;-81
2021/03/01 07:14:11;;;;;;;21.03;13.40;;;0.50;76.10;;;;;;4992152;28;20452;-80
2021/03/01 07:16:39;;;;;;;18.20;12.37;;;0.60;75.70;;;;;;4995649;28;20559;-79
2021/03/01 07:19:07;;;;;;;20.33;12.93;;;0.70;75.30;;;;;;5000757;28;20463;-77
2021/03/01 07:21:34;;;;;;;20.70;12.70;;;0.80;75.00;;;;;;5001672;28;20979;-78
2021/03/01 07:24:02;;;;;;;20.40;11.93;;;0.90;74.80;;;;;;5001587;28;20450;-79
2021/03/01 07:26:31;;;;;;;27.47;14.13;;;1.10;74.70;;;;;;5003420;28;20469;-80
2021/03/01 07:29:05;;;;;;;22.70;11.97;;;1.30;74.40;;;;;;4998821;28;21007;-79
2021/03/01 07:31:35;;;;;;;20.53;12.97;;;1.40;73.90;;;;;;4999373;28;20464;-78
2021/03/01 07:34:04;;;;;;;20.10;12.83;;;1.50;73.50;;;;;;4998246;28;20478;-79
2021/03/01 07:36:31;;;;;;;22.20;12.20;;;1.60;73.20;;;;;;4996272;28;20479;-80
2021/03/01 07:38:58;;;;;;;22.40;12.27;;;1.80;73.10;;;;;;4998273;28;20470;-78
2021/03/01 07:41:25;;;;;;;18.93;11.50;;;1.90;73.10;;;;;;5001817;28;20859;-79
2021/03/01 07:43:52;;;;;;;16.37;10.63;;;2.00;72.50;;;;;;5001831;28;20482;-79
2021/03/01 07:46:25;;;;;;;19.63;11.90;;;2.00;72.40;;;;;;4997426;28;20455;-79
2021/03/01 07:48:52;;;;;;;20.83;12.70;;;2.10;72.30;;;;;;4996972;28;21006;-79
2021/03/01 07:51:39;;;;;;;19.13;11.70;;;2.30;71.80;;;;;;4999182;28;20487;-79
2021/03/01 07:54:05;;;;;;;20.87;12.87;;;2.50;71.40;;;;;;4994622;28;20480;-81
2021/03/01 07:56:50;;;;;;;18.93;12.57;;;2.60;71.00;;;;;;4996985;28;20533;-78
2021/03/01 07:59:30;;;;;;;23.00;13.53;;;2.80;70.80;;;;;;4997110;28;20984;-79
2021/03/01 08:02:15;;;;;;;22.93;12.90;;;2.90;70.50;;;;;;4996246;28;20541;-79
2021/03/01 08:04:47;;;;;;;17.53;12.37;;;3.10;70.30;;;;;;4994505;28;20980;-87
2021/03/01 08:07:14;;;;;;;22.48;13.65;;;3.20;69.90;;;;;;5003411;28;20756;-69
2021/03/01 08:09:46;;;;;;;21.52;15.18;;;3.30;69.50;;;;;;4996961;28;20469;-77
2021/03/01 08:12:33;;;;;;;23.53;14.23;;;3.40;69.00;;;;;;5001400;28;20292;-88
2021/03/01 08:15:03;;;;;;;24.17;13.20;;;3.70;69.20;;;;;;4992062;28;20554;-79
2021/03/01 08:17:32;;;;;;;20.92;15.77;;;3.80;68.30;;;;;;4987217;28;20445;-79
2021/03/01 08:20:00;;;;;;;21.07;15.23;;;3.90;67.80;;;;;;4992171;28;20288;-78
2021/03/01 08:22:27;;;;;;;21.10;13.30;;;4.10;67.50;;;;;;4988642;28;20460;-80
2021/03/01 08:24:55;;;;;;;21.25;15.50;;;4.20;67.10;;;;;;4992130;28;20460;-76
2021/03/01 08:27:40;;;;;;;20.60;14.77;;;4.30;66.90;;;;;;4989685;28;20218;-77
2021/03/01 08:30:21;;;;;;;21.42;16.30;;;4.50;66.60;;;;;;4992063;28;20816;-79
2021/03/01 08:33:17;;;;;;;20.83;13.87;;;4.60;66.40;;;;;;4991234;28;20929;-78
2021/03/01 08:35:46;;;;;;;20.50;14.17;;;4.60;65.90;;;;;;4988051;28;20961;-77
2021/03/01 08:38:14;;;;;;;22.13;14.50;;;4.70;65.80;;;;;;4994597;28;21211;-78
2021/03/01 08:40:51;;;;;;;22.97;14.17;;;4.80;65.70;;;;;;4993904;28;20460;-78
2021/03/01 08:43:31;;;;;;;22.37;13.97;;;4.80;65.20;;;;;;4996817;28;20472;-79
2021/03/01 08:45:58;;;;;;;19.07;13.97;;;5.10;65.90;;;;;;4994867;28;20456;-81
2021/03/01 08:48:25;;;;;;;20.33;14.03;;;5.20;65.00;;;;;;5001284;28;20486;-79
2021/03/01 08:50:53;;;;;;;23.67;14.87;;;5.50;65.20;;;;;;5000323;28;20444;-80
2021/03/01 08:53:25;;;;;;;18.90;13.03;;;5.70;64.40;;;;;;4997114;28;20444;-78
2021/03/01 08:55:52;;;;;;;22.70;13.40;;;5.80;64.30;;;;;;4991816;28;20457;-80
2021/03/01 08:58:19;;;;;;;20.90;14.07;;;5.70;63.70;;;;;;4993061;28;20456;-82
2021/03/01 09:00:54;;;;;;;19.13;13.70;;;6.00;64.10;;;;;;4996572;28;20459;-78
2021/03/01 09:03:26;;;;;;;22.23;15.45;;;6.30;63.70;;;;;;4988426;28;20511;-77
2021/03/01 09:05:56;;;;;;;22.50;15.20;;;6.50;63.40;;;;;;4999604;28;20579;-80
2021/03/01 09:08:30;;;;;;;20.05;15.50;;;6.50;62.00;;;;;;4999914;28;20452;-78
2021/03/01 09:11:00;;;;;;;18.17;13.97;;;6.80;62.00;;;;;;4994577;28;20292;-78
2021/03/01 09:13:27;;;;;;;18.70;13.30;;;6.90;62.00;;;;;;4993709;28;20446;-78
2021/03/01 09:15:55;;;;;;;18.23;12.30;;;6.90;61.10;;;;;;4992953;28;20449;-79
2021/03/01 09:18:22;;;;;;;20.30;12.77;;;6.70;60.30;;;;;;4992916;28;21060;-78
2021/03/01 09:20:55;;;;;;;18.57;11.73;;;6.80;60.30;;;;;;4990830;28;20491;-81
2021/03/01 09:23:37;;;;;;;18.43;12.47;;;7.20;59.80;;;;;;4987874;28;20486;-81
2021/03/01 09:26:05;;;;;;;20.03;12.07;;;7.30;59.50;;;;;;4998642;28;20453;-79
2021/03/01 09:28:33;;;;;;;20.70;13.10;;;7.20;59.00;;;;;;4995193;28;20470;-84
2021/03/01 09:31:08;;;;;;;22.13;14.10;;;7.20;58.90;;;;;;4993028;28;20458;-82
2021/03/01 09:33:36;;;;;;;19.67;12.50;;;7.60;59.10;;;;;;4996462;28;20202;-78
2021/03/01 09:36:04;;;;;;;17.73;12.33;;;7.80;58.20;;;;;;4984034;28;20536;-83
2021/03/01 09:38:32;;;;;;;22.80;13.10;;;7.70;58.10;;;;;;5006740;28;20485;-81
2021/03/01 09:41:00;;;;;;;15.77;11.60;;;8.00;58.20;;;;;;5005998;28;20455;-81
2021/03/01 09:43:27;;;;;;;15.57;11.23;;;8.30;57.90;;;;;;5015475;28;20960;-83
2021/03/01 09:45:56;;;;;;;18.40;13.07;;;8.50;57.40;;;;;;5007448;28;20448;-82
2021/03/01 09:48:22;;;;;;;17.33;13.95;;;8.60;57.20;;;;;;5001455;28;20440;-76
2021/03/01 09:50:50;;;;;;;19.17;12.80;;;8.70;56.60;;;;;;5020647;28;20208;-75
2021/03/01 09:53:19;;;;;;;16.58;13.88;;;8.50;55.80;;;;;;5017770;28;20447;-87
2021/03/01 09:55:50;;;;;;;19.07;12.83;;;8.30;55.30;;;;;;5019778;28;20205;-80
2021/03/01 09:58:31;;;;;;;16.57;11.77;;;8.70;55.60;;;;;;5008737;28;20459;-80
2021/03/01 10:01:12;;;;;;;15.40;11.23;;;8.70;55.40;;;;;;5014374;28;20443;-81
2021/03/01 10:03:43;;;;;;;24.63;12.47;;;8.90;55.10;;;;;;5000734;28;20460;-82
2021/03/01 10:06:11;;;;;;;19.40;13.10;;;9.10;54.80;;;;;;5006736;28;20444;-81
2021/03/01 10:08:39;;;;;;;16.97;11.10;;;9.00;54.40;;;;;;5006660;28;20591;-79
2021/03/01 10:11:22;;;;;;;18.00;12.53;;;9.30;55.00;;;;;;5005861;28;20442;-80
2021/03/01 10:13:49;;;;;;;20.55;13.45;;;9.30;54.10;;;;;;4999988;28;20448;-82
2021/03/01 10:16:28;;;;;;;18.73;12.70;;;9.40;53.90;;;;;;4995233;28;20223;-79
2021/03/01 10:18:56;;;;;;;17.50;12.77;;;9.40;53.60;;;;;;4999109;28;20525;-78
2021/03/01 10:21:31;;;;;;;13.57;11.23;;;9.50;53.50;;;;;;4990500;28;20455;-80
2021/03/01 10:24:03;;;;;;;14.65;11.40;;;9.50;53.20;;;;;;4999763;28;20497;-80
2021/03/01 10:26:30;;;;;;;15.63;11.60;;;9.60;53.10;;;;;;4994995;28;20218;-78
2021/03/01 10:29:00;;;;;;;19.13;12.80;;;9.50;53.00;;;;;;4990532;28;20509;-81
2021/03/01 10:31:32;;;;;;;17.60;12.05;;;9.60;52.90;;;;;;4994150;28;20494;-77
2021/03/01 10:34:01;;;;;;;14.97;11.40;;;9.70;52.60;;;;;;4990534;28;20612;-81
2021/03/01 10:36:32;;;;;;;13.63;10.10;;;9.80;52.60;;;;;;4999282;28;20498;-77
2021/03/01 10:39:15;;;;;;;16.93;11.50;;;9.80;52.40;;;;;;5005663;28;20857;-76
2021/03/01 10:41:44;;;;;;;18.97;12.30;;;10.00;51.40;;;;;;4996322;28;20774;-75
2021/03/01 10:44:12;;;;;;;18.57;11.20;;;10.10;50.80;;;;;;4991819;28;20501;-75
2021/03/01 10:46:42;;;;;;;14.70;10.87;;;10.10;50.70;;;;;;4991101;28;20498;-75
2021/03/01 10:49:21;;;;;;;15.50;11.50;;;10.20;50.60;;;;;;4991434;28;20471;-75
2021/03/01 10:51:48;;;;;;;14.17;9.87;;;10.40;50.50;;;;;;4992965;28;20438;-78
2021/03/01 10:54:16;;;;;;;14.90;10.50;;;10.40;50.30;;;;;;4998124;28;20452;-89
2021/03/01 10:56:42;;;;;;;11.47;10.13;;;10.30;50.10;;;;;;5013527;28;20458;-82
2021/03/01 10:59:09;;;;;;;16.47;10.47;;;10.50;50.20;;;;;;5012650;28;20979;-84
2021/03/01 11:01:40;;;;;;;13.70;9.50;;;10.70;50.10;;;;;;5013186;28;20451;-83
2021/03/01 11:04:07;;;;;;;13.00;10.50;;;10.80;49.90;;;;;;5006730;28;20455;-86
2021/03/01 11:06:34;;;;;;;11.97;9.97;;;10.80;49.50;;;;;;5006620;28;20464;-84
2021/03/01 11:09:01;;;;;;;11.53;8.90;;;10.70;49.40;;;;;;5009707;28;20463;-81
2021/03/01 11:11:28;;;;;;;14.00;9.50;;;10.80;49.20;;;;;;5006656;28;20488;-79
2021/03/01 11:13:55;;;;;;;12.87;9.70;;;10.90;49.10;;;;;;5001830;28;20473;-78
2021/03/01 11:16:24;;;;;;;15.43;9.43;;;11.10;49.10;;;;;;5008364;28;20501;-82
2021/03/01 11:18:50;;;;;;;10.70;8.60;;;11.30;49.30;;;;;;5008208;28;20441;-83
2021/03/01 11:21:20;;;;;;;12.43;8.93;;;11.50;48.70;;;;;;5002936;28;20473;-83
2021/03/01 11:23:47;;;;;;;12.53;8.43;;;11.00;47.50;;;;;;5000241;28;20467;-85
2021/03/01 11:26:15;;;;;;;10.83;7.73;;;11.30;47.80;;;;;;5005988;28;20458;-82
2021/03/01 11:28:45;;;;;;;12.63;8.77;;;11.50;47.70;;;;;;5003530;28;20464;-84
2021/03/01 11:31:12;;;;;;;15.43;9.10;;;11.60;47.50;;;;;;5006317;28;20464;-82
2021/03/01 11:33:39;;;;;;;10.70;8.50;;;11.60;47.40;;;;;;5008093;28;21235;-83
2021/03/01 11:36:07;;;;;;;10.40;8.07;;;11.60;47.20;;;;;;5009063;28;20451;-81
2021/03/01 11:38:33;;;;;;;11.17;7.80;;;11.70;47.70;;;;;;4997651;28;20539;-87
2021/03/01 11:41:00;;;;;;;10.73;8.40;;;11.90;47.00;;;;;;4993705;28;20482;-80
2021/03/01 11:43:26;;;;;;;9.00;6.97;;;11.90;46.70;;;;;;5005637;28;20448;-82
2021/03/01 11:45:55;;;;;;;13.93;8.52;;;11.90;46.10;;;;;;4986936;28;20539;-81
2021/03/01 11:48:21;;;;;;;10.03;7.83;;;12.10;46.10;;;;;;4988350;28;20220;-76
2021/03/01 11:50:50;;;;;;;9.20;7.55;;;12.00;46.10;;;;;;4993902;28;20951;-81
2021/03/01 11:53:17;;;;;;;8.73;6.90;;;12.10;45.90;;;;;;5010166;28;20876;-80
2021/03/01 11:55:44;;;;;;;10.77;7.40;;;12.10;45.90;;;;;;5001783;28;20455;-81
2021/03/01 11:58:12;;;;;;;10.10;7.40;;;12.40;46.20;;;;;;5019637;28;20462;-82
2021/03/01 12:00:41;;;;;;;10.00;7.10;;;12.50;45.80;;;;;;5010743;28;20522;-81
2021/03/01 12:03:11;;;;;;;12.70;7.50;;;12.50;45.80;;;;;;5016173;28;20458;-83
2021/03/01 12:05:40;;;;;;;12.93;7.30;;;12.40;45.30;;;;;;5013996;28;20466;-82
2021/03/01 12:08:07;;;;;;;8.90;6.63;;;12.20;45.20;;;;;;5019485;28;20478;-82
2021/03/01 12:10:34;;;;;;;8.33;7.00;;;12.20;45.00;;;;;;5006349;28;20535;-79
2021/03/01 12:13:01;;;;;;;10.13;7.60;;;12.40;45.30;;;;;;5005244;28;20454;-79
2021/03/01 12:15:28;;;;;;;14.33;7.60;;;12.50;45.10;;;;;;4997364;28;20464;-80
2021/03/01 12:17:54;;;;;;;10.27;6.10;;;12.70;45.20;;;;;;5001316;28;20477;-80
2021/03/01 12:20:22;;;;;;;10.53;6.77;;;12.80;45.40;;;;;;5001180;28;20514;-80
2021/03/01 12:22:49;;;;;;;8.37;5.90;;;12.90;44.70;;;;;;4997894;28;20468;-84
2021/03/01 12:25:15;;;;;;;9.38;5.93;;;13.00;44.60;;;;;;5000971;28;20452;-77
2021/03/01 12:27:42;;;;;;;8.82;6.57;;;13.10;44.00;;;;;;4992174;28;20551;-83
2021/03/01 12:30:10;;;;;;;10.13;6.00;;;13.00;43.50;;;;;;5000590;28;20208;-82
2021/03/01 12:32:37;;;;;;;18.33;5.90;;;13.00;43.10;;;;;;5004456;28;20458;-84
2021/03/01 12:35:05;;;;;;;8.57;5.50;;;13.20;42.90;;;;;;4998485;28;20459;-81
2021/03/01 12:37:33;;;;;;;31.17;6.70;;;13.30;42.80;;;;;;5003237;28;20517;-81
2021/03/01 12:39:59;;;;;;;29.03;7.80;;;13.40;42.70;;;;;;5005332;28;20469;-82
2021/03/01 12:42:26;;;;;;;16.80;6.43;;;13.10;42.40;;;;;;4999071;28;20461;-79